Time;durP1;ratioP1;P1;durP2;ratioP2;P2;SDS_P1;SDS_P2;PMS_P1;PMS_P2;Temp;Humidity;BMP_temperature;BMP_pressure;BME280_temperature;BME280_humidity;BME280_pressure;Samples;Min_cycle;Max_cycle;Signal;HPM_P1;HPM_P2
2022/09/20 00:01:31;;;;;;;5.80;2.60;;;17.80;99.90;;;;;;4962584;28;20022;-95
2022/09/20 00:04:03;;;;;;;4.03;2.63;;;17.80;99.90;;;;;;4962432;28;20033;-94
2022/09/20 00:06:32;;;;;;;2.88;1.90;;;17.80;99.90;;;;;;4962414;28;20088;-94
2022/09/20 00:09:00;;;;;;;4.72;2.70;;;17.80;99.90;;;;;;4962415;28;20054;-93
2022/09/20 00:11:30;;;;;;;3.83;1.88;;;17.70;99.90;;;;;;4962566;28;20121;-93
2022/09/20 00:14:12;;;;;;;7.28;2.58;;;17.70;99.90;;;;;;4962473;28;20041;-94
2022/09/20 00:16:40;;;;;;;2.35;2.00;;;17.70;99.90;;;;;;4962059;28;20141;-94
2022/09/20 00:19:11;;;;;;;4.45;2.00;;;17.60;99.90;;;;;;4962052;28;20484;-94
2022/09/20 00:21:38;;;;;;;4.22;2.08;;;17.60;99.90;;;;;;4948927;28;20504;-94
2022/09/20 00:24:05;;;;;;;6.35;2.65;;;17.60;99.90;;;;;;4942894;28;20031;-94
2022/09/20 00:26:32;;;;;;;5.70;2.08;;;17.60;99.90;;;;;;4958886;28;20074;-94
2022/09/20 00:28:59;;;;;;;6.78;2.42;;;17.60;99.90;;;;;;4943080;28;20027;-93
2022/09/20 00:31:26;;;;;;;3.67;2.10;;;17.60;99.90;;;;;;4942948;28;20122;-95
2022/09/20 00:36:43;;;;;;;4.00;1.90;;;17.60;99.90;;;;;;4958600;28;20496;-94
2022/09/20 00:39:15;;;;;;;4.22;2.20;;;17.60;99.90;;;;;;4942603;28;20062;-94
2022/09/20 00:41:42;;;;;;;7.75;2.42;;;17.70;99.90;;;;;;4942515;28;20050;-94
2022/09/20 00:44:46;;;;;;;4.95;2.22;;;17.60;99.90;;;;;;4943193;28;20023;-95
2022/09/20 00:47:31;;;;;;;3.65;2.10;;;17.60;99.90;;;;;;4958564;28;20031;-94
2022/09/20 00:50:21;;;;;;;;;;;17.60;99.90;;;;;;4942974;28;20045;-95
2022/09/20 00:52:55;;;;;;;5.82;2.50;;;17.60;99.90;;;;;;4878987;29;20371;-94
2022/09/20 00:55:22;;;;;;;4.57;1.90;;;17.70;99.90;;;;;;4864774;29;20103;-94
2022/09/20 00:57:50;;;;;;;3.05;2.28;;;17.70;99.90;;;;;;4874511;29;20037;-94
2022/09/20 01:00:20;;;;;;;3.40;2.00;;;17.70;99.90;;;;;;4867474;29;20037;-94
2022/09/20 01:02:51;;;;;;;6.45;2.20;;;17.70;99.90;;;;;;4866949;29;20044;-94
2022/09/20 01:05:19;;;;;;;7.40;2.30;;;17.60;99.90;;;;;;4871986;29;20033;-94
2022/09/20 01:07:50;;;;;;;2.05;1.85;;;17.60;99.90;;;;;;4867218;29;20037;-95
2022/09/20 01:10:20;;;;;;;7.00;2.20;;;17.60;99.90;;;;;;4867971;29;20045;-95
2022/09/20 01:12:50;;;;;;;5.65;2.50;;;17.60;99.90;;;;;;4866936;29;20029;-94
2022/09/20 01:15:18;;;;;;;5.32;2.28;;;17.50;99.90;;;;;;4866062;29;20128;-94
2022/09/20 01:17:51;;;;;;;2.83;2.05;;;17.50;99.90;;;;;;4866982;29;20071;-94
2022/09/20 01:20:37;;;;;;;4.65;2.10;;;17.40;99.90;;;;;;4868823;29;20041;-95
2022/09/20 01:23:41;;;;;;;5.13;2.55;;;17.40;99.90;;;;;;4900195;29;20044;-94
2022/09/20 01:26:49;;;;;;;5.25;2.67;;;17.40;99.90;;;;;;4885210;29;20055;-94
2022/09/20 01:29:50;;;;;;;8.20;2.55;;;17.40;99.90;;;;;;4966918;23;20063;-95
2022/09/20 01:32:23;;;;;;;7.22;2.50;;;17.40;99.90;;;;;;4946841;28;20039;-94
2022/09/20 01:34:56;;;;;;;4.80;2.78;;;17.40;99.90;;;;;;4944876;28;20053;-93
2022/09/20 01:37:34;;;;;;;5.43;2.38;;;17.40;99.90;;;;;;4945354;28;20062;-94
2022/09/20 01:40:29;;;;;;;4.10;2.33;;;17.40;99.90;;;;;;4958096;29;20441;-94
2022/09/20 01:43:49;;;;;;;5.72;2.55;;;17.30;99.90;;;;;;4941800;29;20047;-94
2022/09/20 01:46:32;;;;;;;4.97;2.88;;;17.30;99.90;;;;;;4900268;29;20036;-94
2022/09/20 01:49:17;;;;;;;4.80;2.80;;;17.30;99.90;;;;;;4957159;29;20031;-94
2022/09/20 01:52:15;;;;;;;8.40;2.90;;;17.30;99.90;;;;;;4942324;29;20090;-94
2022/09/20 01:55:11;;;;;;;2.65;2.03;;;17.60;99.90;;;;;;4959988;29;20050;-94
2022/09/20 01:58:15;;;;;;;7.32;2.50;;;17.90;99.90;;;;;;4944838;28;20038;-94
2022/09/20 02:01:00;;;;;;;4.32;2.10;;;18.00;99.90;;;;;;4944375;29;20388;-94
2022/09/20 02:04:04;;;;;;;5.80;2.38;;;18.10;99.90;;;;;;4944379;29;20046;-94
2022/09/20 02:06:52;;;;;;;7.97;2.35;;;18.10;99.90;;;;;;4960566;29;20031;-93
2022/09/20 02:09:50;;;;;;;7.25;2.38;;;18.20;99.90;;;;;;4944374;29;20106;-94
2022/09/20 02:12:57;;;;;;;4.65;2.65;;;18.10;99.90;;;;;;4943574;29;20031;-94
2022/09/20 02:15:51;;;;;;;8.50;2.78;;;18.20;99.90;;;;;;4943537;29;20031;-93
2022/09/20 02:18:24;;;;;;;7.82;3.20;;;18.20;99.90;;;;;;4943580;29;20484;-93
2022/09/20 02:21:25;;;;;;;3.35;2.22;;;18.20;99.90;;;;;;4942961;29;20035;-95
2022/09/20 02:24:09;;;;;;;8.32;3.05;;;18.20;99.90;;;;;;4943067;29;20499;-94
2022/09/20 02:27:01;;;;;;;6.93;2.72;;;18.20;99.90;;;;;;4958896;29;20035;-95
2022/09/20 02:29:46;;;;;;;8.43;2.90;;;18.10;99.90;;;;;;4942587;29;20078;-95
2022/09/20 02:32:40;;;;;;;4.47;3.13;;;18.10;99.90;;;;;;4942685;29;20035;-94
2022/09/20 02:35:44;;;;;;;5.38;2.47;;;18.10;99.90;;;;;;4942585;29;20110;-94
2022/09/20 02:38:23;;;;;;;8.18;2.35;;;18.10;99.90;;;;;;4929878;29;20055;-94
2022/09/20 02:41:08;;;;;;;12.00;3.22;;;18.10;99.90;;;;;;4949340;29;20067;-94
2022/09/20 02:44:13;;;;;;;6.55;2.80;;;18.10;99.90;;;;;;4944383;29;20401;-94
2022/09/20 02:46:43;;;;;;;;;;;18.00;99.90;;;;;;4943767;29;20035;-94
2022/09/20 02:49:34;;;;;;;7.95;2.75;;;18.00;99.90;;;;;;4958982;29;20316;-94
2022/09/20 02:52:35;;;;;;;6.03;2.42;;;18.00;99.90;;;;;;4944850;29;20038;-94
2022/09/20 02:55:18;;;;;;;6.85;2.50;;;17.90;99.90;;;;;;4941204;29;20507;-95
2022/09/20 02:58:20;;;;;;;6.07;2.72;;;17.90;99.90;;;;;;4943690;29;20027;-94
2022/09/20 03:01:13;;;;;;;8.48;2.88;;;17.90;99.90;;;;;;4943481;29;20054;-95
2022/09/20 03:04:17;;;;;;;6.05;2.88;;;17.90;99.90;;;;;;4947298;28;20039;-95
2022/09/20 03:07:11;;;;;;;5.72;2.47;;;17.80;99.90;;;;;;4955056;29;20130;-95
2022/09/20 03:09:50;;;;;;;4.85;2.25;;;17.90;99.90;;;;;;4941910;29;20434;-94
2022/09/20 03:12:53;;;;;;;6.57;2.78;;;17.80;99.90;;;;;;4926230;29;20046;-94
2022/09/20 03:15:48;;;;;;;4.55;2.10;;;17.80;99.90;;;;;;4935461;29;20039;-94
2022/09/20 03:18:21;;;;;;;6.10;2.88;;;17.80;99.90;;;;;;4942287;29;20035;-94
2022/09/20 03:20:59;;;;;;;4.28;2.67;;;17.80;99.90;;;;;;4942396;29;20043;-94
2022/09/20 03:23:48;;;;;;;5.00;2.50;;;17.70;99.90;;;;;;4927127;29;20409;-94
2022/09/20 03:26:54;;;;;;;7.38;3.03;;;17.70;99.90;;;;;;4942556;29;20024;-94
2022/09/20 03:29:39;;;;;;;6.80;3.33;;;17.70;99.90;;;;;;4942933;29;20062;-95
2022/09/20 03:32:53;;;;;;;10.05;3.95;;;17.60;99.90;;;;;;4942079;29;20054;-94
2022/09/20 03:35:38;;;;;;;11.80;3.60;;;17.60;99.90;;;;;;4918697;29;20028;-94
2022/09/20 03:38:42;;;;;;;5.90;2.90;;;17.50;99.90;;;;;;4959780;28;20114;-93
2022/09/20 03:41:26;;;;;;;6.65;3.20;;;17.40;99.90;;;;;;4959007;28;20051;-94
2022/09/20 03:43:56;;;;;;;7.57;3.30;;;17.30;99.90;;;;;;4941742;29;20039;-94
2022/09/20 03:46:40;;;;;;;5.72;2.90;;;17.30;99.90;;;;;;4940381;29;20058;-93
2022/09/20 03:49:45;;;;;;;9.95;3.83;;;17.20;99.90;;;;;;4956457;28;20039;-93
2022/09/20 03:52:14;;;;;;;5.07;3.27;;;17.20;99.90;;;;;;4941973;29;20065;-94
2022/09/20 03:55:18;;;;;;;6.28;3.20;;;17.10;99.90;;;;;;4925923;29;20835;-93
2022/09/20 03:57:54;;;;;;;5.82;3.20;;;17.20;99.90;;;;;;4940210;29;20066;-93
2022/09/20 04:00:32;;;;;;;6.10;2.63;;;17.20;99.90;;;;;;4957211;29;20027;-93
2022/09/20 04:03:25;;;;;;;5.68;3.28;;;17.10;99.90;;;;;;4956935;29;20497;-93
2022/09/20 04:08:56;;;;;;;7.55;3.22;;;16.90;99.90;;;;;;5168128;23;20093;-93
2022/09/20 04:12:00;;;;;;;8.32;3.35;;;16.80;99.90;;;;;;4994775;28;20073;-93
2022/09/20 04:14:52;;;;;;;11.88;4.65;;;16.90;99.90;;;;;;4961589;28;20035;-93
2022/09/20 04:17:54;;;;;;;12.80;4.47;;;16.80;99.90;;;;;;4963674;28;20046;-94
2022/09/20 04:20:30;;;;;;;11.77;4.68;;;16.90;99.90;;;;;;4977651;28;20047;-93
2022/09/20 04:23:31;;;;;;;;;;;;;;;;;;;;;
2022/09/20 05:08:02;;;;;;;8.52;3.50;;;17.40;99.90;;;;;;5007156;28;20057;-93
2022/09/20 05:16:27;;;;;;;5.03;3.17;;;17.90;99.90;;;;;;5001678;28;20046;-94
2022/09/20 05:18:54;;;;;;;8.05;4.10;;;18.50;99.90;;;;;;4982489;28;20046;-95
2022/09/20 05:21:48;;;;;;;8.15;4.78;;;19.20;99.90;;;;;;4967198;28;20442;-95
2022/09/20 05:27:09;;;;;;;6.72;5.90;;;20.40;99.90;;;;;;4959133;29;20055;-90
2022/09/20 05:29:50;;;;;;;10.15;6.95;;;20.60;99.90;;;;;;4943891;29;20035;-88
2022/09/20 05:32:54;;;;;;;10.68;8.70;;;21.10;99.90;;;;;;4927572;29;20035;-89
2022/09/20 05:35:40;;;;;;;16.38;10.48;;;21.90;99.90;;;;;;4943632;29;20058;-91
2022/09/20 05:38:34;;;;;;;12.48;9.80;;;22.70;99.90;;;;;;4927913;29;20039;-92
2022/09/20 05:41:19;;;;;;;13.23;11.35;;;23.50;99.90;;;;;;4927681;29;20055;-87
2022/09/20 05:44:26;;;;;;;14.07;12.68;;;24.30;99.90;;;;;;4926322;29;20560;-87
2022/09/20 05:47:08;;;;;;;15.15;13.90;;;24.70;99.90;;;;;;4927484;29;20093;-89
2022/09/20 05:50:08;;;;;;;16.40;14.82;;;25.10;99.90;;;;;;4931436;29;20038;-92
2022/09/20 06:01:28;;;;;;;18.17;16.38;;;26.40;99.90;;;;;;4827451;29;20037;-94
2022/09/20 06:11:17;;;;;;;16.77;15.43;;;26.10;99.90;;;;;;5238744;23;20054;-94
2022/09/20 06:13:59;;;;;;;16.75;15.20;;;27.30;99.90;;;;;;4982233;28;20065;-93
2022/09/20 06:16:48;;;;;;;15.87;14.23;;;27.10;99.90;;;;;;4965344;28;20030;-93
2022/09/20 06:20:02;;;;;;;16.52;14.82;;;27.70;99.90;;;;;;4949583;28;20034;-93
2022/09/20 06:22:42;;;;;;;15.75;14.35;;;27.30;99.90;;;;;;4947117;28;20034;-92
2022/09/20 06:25:09;;;;;;;15.57;13.48;;;27.00;99.90;;;;;;4947883;28;20038;-92
2022/09/20 06:28:21;;;;;;;18.48;14.88;;;26.90;99.90;;;;;;4962494;28;20026;-93
2022/09/20 06:30:53;;;;;;;13.43;12.20;;;27.20;99.90;;;;;;4922486;29;20397;-94
2022/09/20 06:33:28;;;;;;;14.23;12.77;;;26.90;99.90;;;;;;4957502;28;20093;-92
2022/09/20 06:58:11;;;;;;;12.32;11.52;;;28.10;99.90;;;;;;5252296;23;20137;-93
2022/09/20 07:12:02;;;;;;;10.85;10.18;;;28.00;99.90;;;;;;5623271;23;20047;-91
2022/09/20 07:14:29;;;;;;;9.88;9.18;;;27.50;99.90;;;;;;4988153;28;20034;-75
2022/09/20 07:16:56;;;;;;;11.38;10.00;;;27.00;99.90;;;;;;4981219;28;20104;-87
2022/09/20 07:19:26;;;;;;;10.70;10.10;;;26.70;99.90;;;;;;4981509;28;20447;-86
2022/09/20 07:21:53;;;;;;;10.40;9.70;;;27.30;99.90;;;;;;4965379;28;20038;-87
2022/09/20 07:24:19;;;;;;;11.20;10.40;;;26.50;99.90;;;;;;4965467;28;20030;-77
2022/09/20 07:26:58;;;;;;;11.65;10.85;;;25.80;99.90;;;;;;4998360;28;20361;-74
2022/09/20 07:29:26;;;;;;;11.43;10.75;;;26.40;99.90;;;;;;4980851;28;20444;-75
2022/09/20 07:31:52;;;;;;;10.20;9.40;;;26.50;99.90;;;;;;4998111;28;20046;-76
2022/09/20 07:34:19;;;;;;;9.27;8.55;;;26.30;99.90;;;;;;4998069;28;20030;-75
2022/09/20 07:36:52;;;;;;;9.80;9.20;;;25.10;99.90;;;;;;4998080;28;20049;-93
2022/09/20 07:39:45;;;;;;;11.18;10.38;;;25.00;99.90;;;;;;4983214;28;20034;-93
2022/09/20 07:42:32;;;;;;;12.60;11.50;;;25.10;99.90;;;;;;4979240;28;20047;-88
2022/09/20 07:45:00;;;;;;;12.43;11.60;;;25.00;99.90;;;;;;4967215;28;20053;-90
2022/09/20 07:47:30;;;;;;;13.25;12.35;;;25.30;99.90;;;;;;4960423;28;20046;-89
2022/09/20 07:49:57;;;;;;;12.70;12.10;;;25.70;99.90;;;;;;4958948;28;20030;-89
2022/09/20 07:52:24;;;;;;;12.90;12.20;;;25.90;99.90;;;;;;4941976;28;20031;-91
2022/09/20 07:54:50;;;;;;;13.35;12.45;;;26.50;99.90;;;;;;4943566;28;20026;-91
2022/09/20 07:57:20;;;;;;;13.48;12.60;;;26.40;99.90;;;;;;4943375;28;20034;-90
2022/09/20 07:59:46;;;;;;;13.43;12.73;;;26.00;99.90;;;;;;4943638;28;20053;-89
2022/09/20 08:02:14;;;;;;;14.00;12.82;;;26.10;99.90;;;;;;4943652;28;20392;-91
2022/09/20 08:04:42;;;;;;;13.80;12.82;;;26.60;99.90;;;;;;4943733;28;20041;-91
2022/09/20 08:07:09;;;;;;;13.80;12.80;;;26.40;99.90;;;;;;4944027;28;20022;-90
2022/09/20 08:09:36;;;;;;;13.95;12.90;;;26.80;99.90;;;;;;4943641;28;20043;-91
2022/09/20 08:12:07;;;;;;;13.80;12.60;;;26.80;99.90;;;;;;4948725;28;20057;-90
2022/09/20 08:14:34;;;;;;;13.38;12.32;;;26.90;99.90;;;;;;4976504;28;20030;-90
2022/09/20 08:17:01;;;;;;;12.88;12.18;;;26.80;99.90;;;;;;4959704;28;20023;-89
2022/09/20 08:19:29;;;;;;;13.93;12.88;;;26.60;99.90;;;;;;4975523;28;20496;-90
2022/09/20 08:21:55;;;;;;;15.38;12.57;;;26.50;99.90;;;;;;4960054;28;20488;-90
2022/09/20 08:24:24;;;;;;;12.77;12.07;;;26.30;99.90;;;;;;4976120;28;20507;-89
2022/09/20 08:26:51;;;;;;;13.23;12.40;;;26.30;99.90;;;;;;4960216;28;20027;-90
2022/09/20 08:29:18;;;;;;;13.77;12.57;;;25.80;99.90;;;;;;4975936;28;20439;-89
2022/09/20 08:31:46;;;;;;;13.40;12.40;;;25.90;99.90;;;;;;4959638;28;20392;-90
2022/09/20 08:34:16;;;;;;;13.90;13.00;;;25.70;99.90;;;;;;4975385;28;20493;-90
2022/09/20 08:36:45;;;;;;;13.25;12.52;;;25.40;99.90;;;;;;4975845;28;20035;-90
2022/09/20 08:39:14;;;;;;;12.65;12.02;;;25.60;99.90;;;;;;4959822;28;20023;-89
2022/09/20 08:41:50;;;;;;;13.50;12.68;;;26.00;99.90;;;;;;4977521;28;20027;-89
2022/09/20 08:44:55;;;;;;;13.27;12.55;;;26.10;99.90;;;;;;4959548;28;20035;-89
2022/09/20 08:47:26;;;;;;;13.18;12.48;;;26.20;99.90;;;;;;4956466;28;20039;-87
2022/09/20 08:49:54;;;;;;;13.07;12.18;;;26.20;99.90;;;;;;4975080;28;20031;-89
2022/09/20 08:52:29;;;;;;;12.63;11.93;;;26.20;99.90;;;;;;4976368;28;20031;-88
2022/09/20 08:54:58;;;;;;;13.20;12.40;;;26.10;99.90;;;;;;4976586;28;20030;-89
2022/09/20 08:57:29;;;;;;;13.82;12.93;;;25.80;99.90;;;;;;4962282;28;20026;-89
2022/09/20 08:59:58;;;;;;;13.88;13.18;;;25.90;99.90;;;;;;4978156;28;20129;-89
2022/09/20 09:02:25;;;;;;;14.27;13.25;;;25.80;99.90;;;;;;4960582;28;20031;-87
2022/09/20 09:04:52;;;;;;;14.05;13.13;;;25.30;99.90;;;;;;4960499;28;20054;-90
2022/09/20 09:07:25;;;;;;;14.07;13.18;;;25.60;99.90;;;;;;4958877;28;20031;-88
2022/09/20 09:09:55;;;;;;;13.43;12.65;;;25.60;99.90;;;;;;4974593;28;20077;-88
2022/09/20 09:12:29;;;;;;;13.80;13.00;;;25.70;99.90;;;;;;4977660;28;20110;-88
2022/09/20 09:15:20;;;;;;;14.32;13.40;;;25.80;99.90;;;;;;4978412;28;20085;-89
2022/09/20 09:17:46;;;;;;;13.82;13.13;;;26.00;99.90;;;;;;4962240;28;20177;-88
2022/09/20 09:20:23;;;;;;;14.15;13.45;;;26.10;99.90;;;;;;4958583;28;20019;-89
2022/09/20 09:23:10;;;;;;;15.00;14.02;;;25.80;99.90;;;;;;4974416;28;20043;-88
2022/09/20 09:25:40;;;;;;;14.75;13.98;;;25.90;99.90;;;;;;4975137;28;20129;-87
2022/09/20 09:28:07;;;;;;;15.00;14.00;;;26.20;99.90;;;;;;4974932;28;20057;-88
2022/09/20 09:30:36;;;;;;;14.85;14.00;;;25.90;99.90;;;;;;4959202;28;20093;-89
2022/09/20 09:33:22;;;;;;;14.13;13.43;;;26.00;99.90;;;;;;4958537;28;20027;-89
2022/09/20 09:35:59;;;;;;;14.27;13.50;;;26.10;99.90;;;;;;4975378;28;20031;-89
2022/09/20 09:38:40;;;;;;;13.68;12.98;;;26.20;99.90;;;;;;4974038;28;20026;-89
2022/09/20 09:41:25;;;;;;;14.38;13.48;;;26.00;99.90;;;;;;4975594;28;20061;-88
2022/09/20 09:44:08;;;;;;;14.15;13.38;;;25.60;99.90;;;;;;4973990;28;20042;-90
2022/09/20 09:46:38;;;;;;;14.52;13.73;;;25.50;99.90;;;;;;4957940;28;20034;-89
2022/09/20 09:49:18;;;;;;;14.55;13.63;;;25.90;99.90;;;;;;4974004;28;20062;-88
2022/09/20 09:52:06;;;;;;;14.68;13.98;;;26.00;99.90;;;;;;4974266;28;20568;-88
2022/09/20 09:54:51;;;;;;;15.65;14.75;;;25.90;99.90;;;;;;4974251;28;20030;-88
2022/09/20 09:57:31;;;;;;;14.93;14.20;;;26.30;99.90;;;;;;4958111;28;20031;-88
2022/09/20 10:00:16;;;;;;;15.43;14.63;;;26.10;99.90;;;;;;4974545;28;20038;-89
2022/09/20 10:03:01;;;;;;;;;;;26.20;99.90;;;;;;4958875;28;20448;-89
2022/09/20 10:05:40;;;;;;;15.00;14.07;;;26.30;99.90;;;;;;4958201;28;20430;-89
2022/09/20 10:08:41;;;;;;;14.63;13.82;;;26.40;99.90;;;;;;4973735;28;20555;-88
2022/09/20 10:11:18;;;;;;;15.10;14.30;;;25.70;99.90;;;;;;4955580;28;20066;-89
2022/09/20 10:14:17;;;;;;;16.38;15.13;;;25.80;99.90;;;;;;4942925;28;20069;-89
2022/09/20 10:17:23;;;;;;;15.25;14.27;;;26.10;99.90;;;;;;4945717;28;20431;-89
2022/09/20 10:20:03;;;;;;;15.55;14.52;;;25.90;99.90;;;;;;4945460;28;20064;-89
2022/09/20 10:22:50;;;;;;;15.55;14.65;;;25.90;99.90;;;;;;4945081;28;20035;-89
2022/09/20 10:25:17;;;;;;;14.98;14.18;;;26.00;99.90;;;;;;4945014;28;20035;-89
2022/09/20 10:28:15;;;;;;;15.05;14.15;;;26.20;99.90;;;;;;4946277;28;20037;-89
2022/09/20 10:31:02;;;;;;;14.73;13.93;;;26.30;99.90;;;;;;4946422;28;20038;-89
2022/09/20 10:34:19;;;;;;;14.50;13.70;;;26.30;99.90;;;;;;4948482;28;20035;-92
2022/09/20 10:36:56;;;;;;;15.05;14.20;;;25.90;99.90;;;;;;4903961;28;20137;-86
2022/09/20 10:39:37;;;;;;;14.90;14.13;;;25.50;99.90;;;;;;4960557;28;20070;-83
2022/09/20 10:45:19;;;;;;;14.73;14.00;;;25.10;99.90;;;;;;4960814;28;20031;-82
2022/09/20 10:47:58;;;;;;;15.20;14.20;;;24.90;99.90;;;;;;4945030;28;20026;-90
2022/09/20 10:50:45;;;;;;;15.18;14.27;;;24.50;99.90;;;;;;4944877;28;20085;-91
2022/09/20 10:53:24;;;;;;;14.73;14.02;;;24.50;99.90;;;;;;4944791;28;20038;-92
2022/09/20 10:56:05;;;;;;;15.52;14.73;;;25.00;99.90;;;;;;4944559;28;20038;-91
2022/09/20 10:58:53;;;;;;;15.75;15.05;;;25.30;99.90;;;;;;4944514;28;20031;-91
2022/09/20 11:01:48;;;;;;;15.63;14.68;;;25.80;99.90;;;;;;4945181;28;20491;-89
2022/09/20 11:04:39;;;;;;;15.05;14.32;;;26.10;99.90;;;;;;4944736;28;20545;-91
2022/09/20 11:07:18;;;;;;;15.68;14.68;;;25.60;99.90;;;;;;4944975;28;20034;-87
2022/09/20 11:10:27;;;;;;;14.68;13.98;;;25.30;99.90;;;;;;4944385;28;20034;-87
2022/09/20 11:13:17;;;;;;;14.60;13.90;;;25.30;99.90;;;;;;4905256;29;20083;-88
2022/09/20 11:15:51;;;;;;;16.35;14.75;;;25.00;99.90;;;;;;4937155;29;20032;-87
2022/09/20 11:18:31;;;;;;;16.25;15.45;;;25.50;99.90;;;;;;4905639;29;20513;-86
2022/09/20 11:21:26;;;;;;;16.65;15.65;;;25.90;99.90;;;;;;4921075;29;20119;-87
2022/09/20 11:24:01;;;;;;;;;;;26.30;99.90;;;;;;4900621;29;20051;-88
2022/09/20 11:26:37;;;;;;;15.50;14.70;;;26.30;99.90;;;;;;4935963;29;19910;-87
2022/09/20 11:29:23;;;;;;;14.65;13.95;;;25.80;99.90;;;;;;4920823;29;20433;-87
2022/09/20 11:31:54;;;;;;;15.25;14.43;;;25.50;99.90;;;;;;4921147;29;20064;-87
2022/09/20 11:34:52;;;;;;;15.48;14.68;;;25.10;99.90;;;;;;4921049;29;20107;-90
2022/09/20 11:37:21;;;;;;;15.70;14.90;;;24.90;99.90;;;;;;4901755;29;20050;-88
2022/09/20 11:39:54;;;;;;;15.93;15.02;;;25.10;99.90;;;;;;4920873;29;20028;-88
2022/09/20 11:42:26;;;;;;;15.50;14.63;;;25.30;99.90;;;;;;4920861;29;20601;-89
2022/09/20 11:44:54;;;;;;;16.38;15.20;;;25.60;99.90;;;;;;4905597;29;20063;-87
2022/09/20 11:47:30;;;;;;;15.70;14.82;;;25.70;99.90;;;;;;4920724;29;20508;-88
2022/09/20 11:50:18;;;;;;;15.38;14.57;;;25.70;99.90;;;;;;4945307;28;20061;-88
2022/09/20 11:52:58;;;;;;;15.63;14.90;;;25.60;99.90;;;;;;4943858;28;20026;-88
2022/09/20 11:55:50;;;;;;;15.85;14.93;;;25.80;99.90;;;;;;4943789;28;20500;-88
2022/09/20 11:58:21;;;;;;;16.30;15.30;;;26.10;99.90;;;;;;4943427;28;20033;-88
2022/09/20 12:00:51;;;;;;;15.52;14.60;;;26.30;99.90;;;;;;4943432;28;20023;-87
2022/09/20 12:13:51;;;;;;;15.88;14.93;;;25.10;99.90;;;;;;4936797;29;20134;-93
2022/09/20 12:16:35;;;;;;;15.63;14.73;;;25.30;99.90;;;;;;4963374;28;20030;-92
2022/09/20 12:19:06;;;;;;;15.30;14.57;;;25.40;99.90;;;;;;4962289;28;20030;-93
2022/09/20 12:21:58;;;;;;;16.02;15.10;;;25.10;99.90;;;;;;4978383;28;20038;-92
2022/09/20 12:25:12;;;;;;;15.88;14.98;;;24.80;99.90;;;;;;4978717;28;20042;-92
2022/09/20 12:27:38;;;;;;;15.77;14.98;;;24.80;99.90;;;;;;4962522;28;20030;-95
2022/09/20 12:30:16;;;;;;;15.88;14.90;;;24.80;99.90;;;;;;4962261;28;20022;-94
2022/09/20 12:32:57;;;;;;;15.80;14.90;;;24.80;99.90;;;;;;4978938;28;20117;-93
2022/09/20 12:35:37;;;;;;;15.10;14.30;;;24.90;99.90;;;;;;4979073;28;20030;-93
2022/09/20 12:38:22;;;;;;;15.50;14.70;;;25.20;99.90;;;;;;4965774;28;20031;-95
2022/09/20 12:41:15;;;;;;;15.32;14.52;;;25.30;99.90;;;;;;4967466;28;20026;-94
2022/09/20 12:43:54;;;;;;;15.05;14.35;;;25.60;99.90;;;;;;4965550;28;20042;-92
2022/09/20 12:46:31;;;;;;;14.95;14.25;;;25.80;99.90;;;;;;4963188;28;20034;-94
2022/09/20 12:52:49;;;;;;;14.98;14.07;;;25.60;99.90;;;;;;4966751;28;20026;-91
2022/09/20 12:55:39;;;;;;;15.35;14.10;;;25.40;99.90;;;;;;4979311;28;20433;-92
2022/09/20 12:58:18;;;;;;;14.20;13.50;;;25.40;99.90;;;;;;4978424;28;20031;-94
2022/09/20 13:00:51;;;;;;;14.85;13.95;;;25.60;99.90;;;;;;4961759;28;20026;-93
2022/09/20 13:03:22;;;;;;;14.88;14.07;;;25.50;99.90;;;;;;4961600;28;20510;-93
2022/09/20 13:06:14;;;;;;;14.90;14.07;;;25.30;99.90;;;;;;4977752;28;20034;-94
2022/09/20 13:08:49;;;;;;;15.05;14.05;;;25.10;99.90;;;;;;4961517;28;20220;-94
2022/09/20 13:11:50;;;;;;;14.93;14.07;;;25.10;99.90;;;;;;4961552;28;20038;-94
2022/09/20 13:14:30;;;;;;;14.70;13.90;;;25.40;99.90;;;;;;4961777;28;20038;-94
2022/09/20 13:16:58;;;;;;;14.57;13.88;;;25.60;99.90;;;;;;4977823;28;20038;-92
2022/09/20 13:19:43;;;;;;;14.20;13.40;;;25.30;99.90;;;;;;4961819;28;20026;-94
2022/09/20 13:22:13;;;;;;;14.10;13.30;;;25.10;99.90;;;;;;4978138;28;20084;-95
2022/09/20 13:24:47;;;;;;;14.65;13.65;;;24.90;99.90;;;;;;4962003;28;20030;-93
2022/09/20 13:27:23;;;;;;;14.27;13.48;;;24.90;99.90;;;;;;4961935;28;20027;-91
2022/09/20 13:29:50;;;;;;;13.65;13.02;;;24.80;99.90;;;;;;4977488;28;20110;-92
2022/09/20 13:32:29;;;;;;;14.18;13.30;;;24.80;99.90;;;;;;4961424;28;20121;-93
2022/09/20 13:35:09;;;;;;;14.27;13.50;;;25.20;99.90;;;;;;4977482;28;20097;-92
2022/09/20 13:37:46;;;;;;;13.80;13.00;;;25.20;99.90;;;;;;4977522;28;20041;-91
2022/09/20 13:40:32;;;;;;;13.45;12.75;;;25.20;99.90;;;;;;4961621;28;20373;-94
2022/09/20 13:43:03;;;;;;;14.20;13.50;;;24.90;99.90;;;;;;4977326;28;20046;-92
2022/09/20 13:45:31;;;;;;;14.60;13.70;;;24.90;99.90;;;;;;4977254;28;20085;-93
2022/09/20 13:48:01;;;;;;;14.90;14.00;;;24.60;99.90;;;;;;4961397;28;20052;-94
2022/09/20 14:21:01;;;;;;;13.75;13.02;;;24.10;99.90;;;;;;5578920;23;20102;-94
2022/09/20 14:29:34;;;;;;;13.45;12.70;;;23.90;99.90;;;;;;5358888;23;20050;-93
2022/09/20 16:43:07;;;;;;;11.30;10.50;;;21.50;99.90;;;;;;1656001;23;21772;-93
2022/09/20 16:45:35;;;;;;;10.82;9.55;;;21.40;99.90;;;;;;4939118;29;20107;-93
2022/09/20 17:12:40;;;;;;;8.75;8.25;;;21.00;99.90;;;;;;5146203;23;20393;-92
2022/09/20 19:40:49;;;;;;;7.93;7.05;;;19.40;99.90;;;;;;5390140;23;20033;-94
2022/09/20 22:35:59;;;;;;;7.13;6.00;;;18.20;99.90;;;;;;5922640;23;2185476;-91
